Tristen — WDB6155 — position and weather

sailwx.info

Track history (hours):
 
Tides and Currents Weather Stations Pressure Air Temp Water Temp Dewpoint Dewpoint Depression Visibility Wind Speed Wind Dir Waves Ship Positions

Tristen

Owner: LA CARRIERS, INC., CUT OFF, LA. More information available from US FCC via Universal Licensing System and Coast Guard Vessel Documentation Center.

Last reported at 2017-Dec-26 04:42 UTC. Time now 2018-May-22 21:26 UTC.
Position N 29°35' W 090°23'.
Warning: this ship's position is months out of date.

MMSI: 366919050.

Date/timePositionNaut miles runAvg speedWind from/ knotsBaromVisibWave heightAir tempDewpointWater temp
2017-Dec-26 04:42N 29°35' W 090°23'  
2017-Dec-21 12:04N 30°24' W 086°54'1 4.5
2017-Dec-21 11:54N 30°24' W 086°54'3 6.7
2017-Dec-21 11:30N 30°24' W 086°51'3 6.8
2017-Dec-21 11:00N 30°24' W 086°47'15 4.8
2017-Dec-21 07:50N 30°26' W 086°29'2 7.5
2017-Dec-21 07:30N 30°26' W 086°26'4 7.4
2017-Dec-21 07:00N 30°26' W 086°22'  
2017-Dec-18 18:37N 27°44' W 082°32'1 7.0
2017-Dec-18 18:31N 27°45' W 082°32'3 5.1
2017-Dec-18 18:00N 27°47' W 082°33'0 0.8
2017-Dec-18 17:30N 27°47' W 082°33'3 5.3
2017-Dec-18 17:00N 27°48' W 082°30'3 5.1
2017-Dec-18 16:29N 27°49' W 082°27'2 4.7
2017-Dec-18 16:01N 27°51' W 082°26'0 0.7
2017-Dec-18 15:30N 27°51' W 082°26'1 2.2
2017-Dec-18 15:00N 27°50' W 082°25'1 2.7
2017-Dec-18 14:30N 27°48' W 082°25'2 4.4
2017-Dec-18 14:00N 27°51' W 082°26'1 1.8
2017-Dec-18 13:30N 27°51' W 082°27'3 5.7
2017-Dec-18 13:00N 27°48' W 082°28'3 6.2
2017-Dec-18 12:27N 27°47' W 082°32'3 6.1
2017-Dec-18 12:00N 27°47' W 082°35'3 4.9
2017-Dec-18 11:27N 27°46' W 082°38'9 1.9
2017-Dec-18 06:58N 27°48' W 082°28'3 6.3
2017-Dec-18 06:29N 27°51' W 082°26'0 0.5
2017-Dec-18 06:00N 27°51' W 082°27'3 5.7
2017-Dec-18 05:30N 27°48' W 082°28'3 6.2
2017-Dec-18 04:58N 27°47' W 082°32'3 5.9
2017-Dec-18 04:29N 27°47' W 082°35'3 5.4
2017-Dec-18 04:00N 27°46' W 082°38'2 3.5
2017-Dec-18 03:25N 27°47' W 082°36'3 6.4
2017-Dec-18 03:00N 27°49' W 082°34'3 6.7
2017-Dec-18 02:30N 27°52' W 082°33'1 2.1
2017-Dec-18 02:00N 27°53' W 082°32'0 0.0
2017-Dec-18 01:30N 27°53' W 082°32'0 0.0
2017-Dec-18 01:00N 27°53' W 082°32'1 2.3
2017-Dec-18 00:30N 27°52' W 082°33'3 6.8
2017-Dec-18 00:00N 27°49' W 082°34'3 0.9
2017-Dec-17 20:49N 27°47' W 082°32'2 6.8
2017-Dec-17 20:28N 27°48' W 082°29'3 6.4
2017-Dec-17 20:00N 27°50' W 082°27'1 2.7
2017-Dec-17 19:30N 27°51' W 082°26'0 0.0
2017-Dec-17 18:38N 27°51' W 082°26'0 1.0
2017-Dec-17 18:30N 27°51' W 082°26'2 4.7
2017-Dec-17 18:00N 27°49' W 082°27'2 4.7
2017-Dec-17 17:31N 27°48' W 082°30'2 4.9
2017-Dec-17 17:01N 27°47' W 082°32'3 5.4
2017-Dec-17 16:24N 27°46' W 082°36'2 4.4
2017-Dec-17 15:59N 27°46' W 082°38'2 1.2
2017-Dec-17 14:33N 27°46' W 082°36'0 5.3
2017-Dec-17 14:28N 27°47' W 082°36'2 5.1
2017-Dec-17 14:00N 27°49' W 082°34'3 6.0
2017-Dec-17 13:30N 27°52' W 082°33'2 3.3
2017-Dec-17 13:01N 27°53' W 082°32'0 0.0
2017-Dec-17 12:31N 27°53' W 082°32'0 0.0
2017-Dec-17 12:01N 27°53' W 082°32'0 0.0
2017-Dec-17 11:31N 27°53' W 082°32'0 0.0
2017-Dec-17 11:00N 27°53' W 082°32'0 0.0
2017-Dec-17 10:31N 27°53' W 082°32'0 0.0
2017-Dec-17 10:00N 27°53' W 082°32'0 0.0
2017-Dec-17 09:30N 27°53' W 082°32'0 0.0
2017-Dec-17 09:00N 27°53' W 082°32'0 0.0
2017-Dec-17 08:30N 27°53' W 082°32'0 0.0
2017-Dec-17 08:01N 27°53' W 082°32'0 0.0
2017-Dec-17 07:30N 27°53' W 082°32'0 0.0
2017-Dec-17 07:01N 27°53' W 082°32'0 0.0
2017-Dec-17 06:30N 27°53' W 082°32'0 0.0
2017-Dec-17 06:01N 27°53' W 082°32'0 0.0
2017-Dec-17 05:31N 27°53' W 082°32'0 0.0
2017-Dec-17 05:01N 27°53' W 082°32'0 0.0
2017-Dec-17 04:31N 27°53' W 082°32'0 0.0
2017-Dec-17 04:00N 27°53' W 082°32'0 0.0
2017-Dec-17 03:30N 27°53' W 082°32'0 0.0
2017-Dec-17 03:00N 27°53' W 082°32'0 0.0
2017-Dec-17 02:30N 27°53' W 082°32'0 0.0
2017-Dec-17 02:01N 27°53' W 082°32'0 0.0
2017-Dec-17 01:30N 27°53' W 082°32'0 0.0
2017-Dec-17 01:01N 27°53' W 082°32'0 0.0
2017-Dec-17 00:30N 27°53' W 082°32'0 0.0
2017-Dec-17 00:00N 27°53' W 082°32'0 0.0
2017-Dec-16 23:30N 27°53' W 082°32'0 0.0
2017-Dec-16 23:00N 27°53' W 082°32'0 0.0
2017-Dec-16 22:31N 27°53' W 082°32'0 0.6
2017-Dec-16 22:00N 27°53' W 082°33'3 6.9
2017-Dec-16 21:30N 27°50' W 082°34'3 5.4
2017-Dec-16 21:00N 27°47' W 082°33'4 7.3
2017-Dec-16 20:30N 27°48' W 082°29'3 6.7
2017-Dec-16 20:00N 27°51' W 082°27'0 0.7
2017-Dec-16 19:31N 27°51' W 082°26'3 5.9
2017-Dec-16 19:00N 27°48' W 082°28'3 6.9
2017-Dec-16 18:30N 27°47' W 082°32'3 5.8
2017-Dec-16 18:00N 27°49' W 082°34'3 6.6
2017-Dec-16 17:30N 27°52' W 082°33'2 3.3
2017-Dec-16 17:00N 27°53' W 082°32'0 0.0
2017-Dec-16 16:30N 27°53' W 082°32'0 0.1
2017-Dec-16 16:00N 27°53' W 082°32'0 0.0
2017-Dec-16 15:30N 27°53' W 082°32'0 0.0
2017-Dec-16 15:01N 27°53' W 082°32'0 0.0
2017-Dec-16 14:31N 27°53' W 082°32'0 0.0
2017-Dec-16 14:01N 27°53' W 082°32'0 0.0
2017-Dec-16 13:30N 27°53' W 082°32'0 0.0
2017-Dec-16 13:01N 27°53' W 082°32'0 0.0
2017-Dec-16 10:43N 27°53' W 082°32'0 0.0
2017-Dec-16 10:30N 27°53' W 082°32'0 0.0
2017-Dec-16 10:00N 27°53' W 082°32'0 0.0
2017-Dec-16 09:30N 27°53' W 082°32'0 0.0
2017-Dec-16 09:00N 27°53' W 082°32'0 0.0
2017-Dec-16 08:30N 27°53' W 082°32'0 0.1
2017-Dec-16 08:00N 27°53' W 082°32'1 1.7
2017-Dec-16 07:30N 27°52' W 082°33'2 3.3
2017-Dec-16 07:00N 27°51' W 082°34'2 4.1
2017-Dec-16 06:30N 27°49' W 082°34'2 4.1
2017-Dec-16 05:58N 27°47' W 082°35'2 3.8
2017-Dec-16 05:26N 27°46' W 082°37'  
Track history (hours):
 
Tides and Currents Weather Stations Pressure Air Temp Water Temp Dewpoint Dewpoint Depression Visibility Wind Speed Wind Dir Waves Ship Positions

Tristen

Owner: LA CARRIERS, INC., CUT OFF, LA. More information available from US FCC via Universal Licensing System and Coast Guard Vessel Documentation Center.

Last reported at 2017-Dec-26 04:42 UTC. Time now 2018-May-22 21:26 UTC.
Position N 29°35' W 090°23'.
Warning: this ship's position is months out of date.

MMSI: 366919050.

Date/timePositionNaut miles runAvg speedWind from/ knotsBaromVisibWave heightAir tempDewpointWater temp
2017-Dec-26 04:42N 29°35' W 090°23'  
2017-Dec-21 12:04N 30°24' W 086°54'1 4.5
2017-Dec-21 11:54N 30°24' W 086°54'3 6.7
2017-Dec-21 11:30N 30°24' W 086°51'3 6.8
2017-Dec-21 11:00N 30°24' W 086°47'15 4.8
2017-Dec-21 07:50N 30°26' W 086°29'2 7.5
2017-Dec-21 07:30N 30°26' W 086°26'4 7.4
2017-Dec-21 07:00N 30°26' W 086°22'  
2017-Dec-18 18:37N 27°44' W 082°32'1 7.0
2017-Dec-18 18:31N 27°45' W 082°32'3 5.1
2017-Dec-18 18:00N 27°47' W 082°33'0 0.8
2017-Dec-18 17:30N 27°47' W 082°33'3 5.3
2017-Dec-18 17:00N 27°48' W 082°30'3 5.1
2017-Dec-18 16:29N 27°49' W 082°27'2 4.7
2017-Dec-18 16:01N 27°51' W 082°26'0 0.7
2017-Dec-18 15:30N 27°51' W 082°26'1 2.2
2017-Dec-18 15:00N 27°50' W 082°25'1 2.7
2017-Dec-18 14:30N 27°48' W 082°25'2 4.4
2017-Dec-18 14:00N 27°51' W 082°26'1 1.8
2017-Dec-18 13:30N 27°51' W 082°27'3 5.7
2017-Dec-18 13:00N 27°48' W 082°28'3 6.2
2017-Dec-18 12:27N 27°47' W 082°32'3 6.1
2017-Dec-18 12:00N 27°47' W 082°35'3 4.9
2017-Dec-18 11:27N 27°46' W 082°38'9 1.9
2017-Dec-18 06:58N 27°48' W 082°28'3 6.3
2017-Dec-18 06:29N 27°51' W 082°26'0 0.5
2017-Dec-18 06:00N 27°51' W 082°27'3 5.7
2017-Dec-18 05:30N 27°48' W 082°28'3 6.2
2017-Dec-18 04:58N 27°47' W 082°32'3 5.9
2017-Dec-18 04:29N 27°47' W 082°35'3 5.4
2017-Dec-18 04:00N 27°46' W 082°38'2 3.5
2017-Dec-18 03:25N 27°47' W 082°36'3 6.4
2017-Dec-18 03:00N 27°49' W 082°34'3 6.7
2017-Dec-18 02:30N 27°52' W 082°33'1 2.1
2017-Dec-18 02:00N 27°53' W 082°32'0 0.0
2017-Dec-18 01:30N 27°53' W 082°32'0 0.0
2017-Dec-18 01:00N 27°53' W 082°32'1 2.3
2017-Dec-18 00:30N 27°52' W 082°33'3 6.8
2017-Dec-18 00:00N 27°49' W 082°34'3 0.9
2017-Dec-17 20:49N 27°47' W 082°32'2 6.8
2017-Dec-17 20:28N 27°48' W 082°29'3 6.4
2017-Dec-17 20:00N 27°50' W 082°27'1 2.7
2017-Dec-17 19:30N 27°51' W 082°26'0 0.0
2017-Dec-17 18:38N 27°51' W 082°26'0 1.0
2017-Dec-17 18:30N 27°51' W 082°26'2 4.7
2017-Dec-17 18:00N 27°49' W 082°27'2 4.7
2017-Dec-17 17:31N 27°48' W 082°30'2 4.9
2017-Dec-17 17:01N 27°47' W 082°32'3 5.4
2017-Dec-17 16:24N 27°46' W 082°36'2 4.4
2017-Dec-17 15:59N 27°46' W 082°38'2 1.2
2017-Dec-17 14:33N 27°46' W 082°36'0 5.3
2017-Dec-17 14:28N 27°47' W 082°36'2 5.1
2017-Dec-17 14:00N 27°49' W 082°34'3 6.0
2017-Dec-17 13:30N 27°52' W 082°33'2 3.3
2017-Dec-17 13:01N 27°53' W 082°32'0 0.0
2017-Dec-17 12:31N 27°53' W 082°32'0 0.0
2017-Dec-17 12:01N 27°53' W 082°32'0 0.0
2017-Dec-17 11:31N 27°53' W 082°32'0 0.0
2017-Dec-17 11:00N 27°53' W 082°32'0 0.0
2017-Dec-17 10:31N 27°53' W 082°32'0 0.0
2017-Dec-17 10:00N 27°53' W 082°32'0 0.0
2017-Dec-17 09:30N 27°53' W 082°32'0 0.0
2017-Dec-17 09:00N 27°53' W 082°32'0 0.0
2017-Dec-17 08:30N 27°53' W 082°32'0 0.0
2017-Dec-17 08:01N 27°53' W 082°32'0 0.0
2017-Dec-17 07:30N 27°53' W 082°32'0 0.0
2017-Dec-17 07:01N 27°53' W 082°32'0 0.0
2017-Dec-17 06:30N 27°53' W 082°32'0 0.0
2017-Dec-17 06:01N 27°53' W 082°32'0 0.0
2017-Dec-17 05:31N 27°53' W 082°32'0 0.0
2017-Dec-17 05:01N 27°53' W 082°32'0 0.0
2017-Dec-17 04:31N 27°53' W 082°32'0 0.0
2017-Dec-17 04:00N 27°53' W 082°32'0 0.0
2017-Dec-17 03:30N 27°53' W 082°32'0 0.0
2017-Dec-17 03:00N 27°53' W 082°32'0 0.0
2017-Dec-17 02:30N 27°53' W 082°32'0 0.0
2017-Dec-17 02:01N 27°53' W 082°32'0 0.0
2017-Dec-17 01:30N 27°53' W 082°32'0 0.0
2017-Dec-17 01:01N 27°53' W 082°32'0 0.0
2017-Dec-17 00:30N 27°53' W 082°32'0 0.0
2017-Dec-17 00:00N 27°53' W 082°32'0 0.0
2017-Dec-16 23:30N 27°53' W 082°32'0 0.0
2017-Dec-16 23:00N 27°53' W 082°32'0 0.0
2017-Dec-16 22:31N 27°53' W 082°32'0 0.6
2017-Dec-16 22:00N 27°53' W 082°33'3 6.9
2017-Dec-16 21:30N 27°50' W 082°34'3 5.4
2017-Dec-16 21:00N 27°47' W 082°33'4 7.3
2017-Dec-16 20:30N 27°48' W 082°29'3 6.7
2017-Dec-16 20:00N 27°51' W 082°27'0 0.7
2017-Dec-16 19:31N 27°51' W 082°26'3 5.9
2017-Dec-16 19:00N 27°48' W 082°28'3 6.9
2017-Dec-16 18:30N 27°47' W 082°32'3 5.8
2017-Dec-16 18:00N 27°49' W 082°34'3 6.6
2017-Dec-16 17:30N 27°52' W 082°33'2 3.3
2017-Dec-16 17:00N 27°53' W 082°32'0 0.0
2017-Dec-16 16:30N 27°53' W 082°32'0 0.1
2017-Dec-16 16:00N 27°53' W 082°32'0 0.0
2017-Dec-16 15:30N 27°53' W 082°32'0 0.0
2017-Dec-16 15:01N 27°53' W 082°32'0 0.0
2017-Dec-16 14:31N 27°53' W 082°32'0 0.0
2017-Dec-16 14:01N 27°53' W 082°32'0 0.0
2017-Dec-16 13:30N 27°53' W 082°32'0 0.0
2017-Dec-16 13:01N 27°53' W 082°32'0 0.0
2017-Dec-16 10:43N 27°53' W 082°32'0 0.0
2017-Dec-16 10:30N 27°53' W 082°32'0 0.0
2017-Dec-16 10:00N 27°53' W 082°32'0 0.0
2017-Dec-16 09:30N 27°53' W 082°32'0 0.0
2017-Dec-16 09:00N 27°53' W 082°32'0 0.0
2017-Dec-16 08:30N 27°53' W 082°32'0 0.1
2017-Dec-16 08:00N 27°53' W 082°32'1 1.7
2017-Dec-16 07:30N 27°52' W 082°33'2 3.3
2017-Dec-16 07:00N 27°51' W 082°34'2 4.1
2017-Dec-16 06:30N 27°49' W 082°34'2 4.1
2017-Dec-16 05:58N 27°47' W 082°35'2 3.8
2017-Dec-16 05:26N 27°46' W 082°37'  

Dump ship's entire track history